Airfield :
LOGIN :

Register | Disclaimer

   EN    FR    IT 

 










Legend :    VFR   Marginal VFR   IFR   Intensive IFR   Very Intensive IFR
Visi :
Ceiling :
>= 8 km
>= 3000ft
5 to 8 km
1000 to 3000 ft
1500m to 5 km
500 to 1000 ft
800 to 1500m
200 to 500 ft
< 800m
< 200 ft
Symbols :   Thunderstorms  Fog  Heavy snow  Heavy precipitations  Wind > 20 kt
SIGMETs :     Misc.  Thunderstorms  Icing  Turbulence  Mountain Waves  Volcanic Ashes






- Airport Elevation : 1470 ft


LSMD - Dubendorf Military

CURRENT METAR :
  • 130920Z AUTO 24011G21KT 190V320 9999NDV -RA FEW018 BKN036 BKN065 04/01 Q0984 RMK

EXPIRED METARs :
  • 130850Z 19005KT 130V240 6000 -SHRA BKN012 OVC018 02/01 Q0983 RMK GRN
  • 130820Z 25006KT 200V290 4800 SHRA BKN011 OVC019 02/00 Q0983 RMK GRN
  • 130750Z 29007KT 9999 SCT032 BKN042 OVC049 01/M00 Q0981 RMK BLU
  • 130720Z VRB01KT 9999 -SHRA SCT034 BKN043 OVC063 01/M00 Q0980 RMK BLU
  • 130650Z VRB01KT 9999 -SHRA SCT033 BKN047 00/M01 Q0981 RMK BLU

Expired Forecast.



MET'MAP, your aeronautical weather chart ! - Copyright ORBIFLY December 2007 - Disclaimer

ORBIFLY MET'MAP TEAM :

Programming & Development : Alexandra Zaïnal
Concept & original design : Baudouin d'Aumeries
Assistance for programming : Marc-Olivier Méhu
Technical & hardware support : Manuel Goepfert

Contact : metmap@orbifly.com




SOURCES & CREDITS :

   NOAA